sensor_id;sensor_type;location;lat;lon;timestamp;P1;durP1;ratioP1;P2;durP2;ratioP2
15679;SDS011;15488;48.114;11.532;2023-04-28T00:01:09;3.00;;;2.30;;
15679;SDS011;15488;48.114;11.532;2023-04-28T00:03:36;2.23;;;2.10;;
15679;SDS011;15488;48.114;11.532;2023-04-28T00:06:04;2.73;;;2.23;;
15679;SDS011;15488;48.114;11.532;2023-04-28T00:08:33;2.27;;;1.80;;
15679;SDS011;15488;48.114;11.532;2023-04-28T00:11:01;2.90;;;2.10;;
15679;SDS011;15488;48.114;11.532;2023-04-28T00:13:28;2.37;;;1.90;;
15679;SDS011;15488;48.114;11.532;2023-04-28T00:15:56;4.67;;;2.03;;
15679;SDS011;15488;48.114;11.532;2023-04-28T00:18:24;2.40;;;2.10;;
15679;SDS011;15488;48.114;11.532;2023-04-28T00:20:51;2.77;;;2.10;;
15679;SDS011;15488;48.114;11.532;2023-04-28T00:23:19;2.30;;;1.90;;
15679;SDS011;15488;48.114;11.532;2023-04-28T00:25:50;3.20;;;2.10;;
15679;SDS011;15488;48.114;11.532;2023-04-28T00:28:18;2.10;;;1.90;;
15679;SDS011;15488;48.114;11.532;2023-04-28T00:30:46;2.53;;;2.10;;
15679;SDS011;15488;48.114;11.532;2023-04-28T00:33:13;2.83;;;1.70;;
15679;SDS011;15488;48.114;11.532;2023-04-28T00:35:41;2.80;;;1.70;;
15679;SDS011;15488;48.114;11.532;2023-04-28T00:38:08;3.00;;;1.90;;
15679;SDS011;15488;48.114;11.532;2023-04-28T00:40:36;1.87;;;1.70;;
15679;SDS011;15488;48.114;11.532;2023-04-28T00:43:07;3.07;;;1.90;;
15679;SDS011;15488;48.114;11.532;2023-04-28T00:45:34;2.70;;;1.60;;
15679;SDS011;15488;48.114;11.532;2023-04-28T00:48:02;2.00;;;1.87;;
15679;SDS011;15488;48.114;11.532;2023-04-28T00:50:30;2.37;;;1.70;;
15679;SDS011;15488;48.114;11.532;2023-04-28T00:52:59;2.40;;;1.80;;
15679;SDS011;15488;48.114;11.532;2023-04-28T00:55:26;2.23;;;1.70;;
15679;SDS011;15488;48.114;11.532;2023-04-28T00:57:56;1.80;;;1.67;;
15679;SDS011;15488;48.114;11.532;2023-04-28T01:00:25;2.40;;;1.63;;
15679;SDS011;15488;48.114;11.532;2023-04-28T01:02:53;2.10;;;1.70;;
15679;SDS011;15488;48.114;11.532;2023-04-28T01:05:22;2.10;;;1.80;;
15679;SDS011;15488;48.114;11.532;2023-04-28T01:07:50;1.90;;;1.80;;
15679;SDS011;15488;48.114;11.532;2023-04-28T01:10:18;3.23;;;1.80;;
15679;SDS011;15488;48.114;11.532;2023-04-28T01:12:46;2.93;;;1.73;;
15679;SDS011;15488;48.114;11.532;2023-04-28T01:15:15;2.17;;;1.93;;
15679;SDS011;15488;48.114;11.532;2023-04-28T01:17:45;2.67;;;1.93;;
15679;SDS011;15488;48.114;11.532;2023-04-28T01:20:12;2.00;;;1.70;;
15679;SDS011;15488;48.114;11.532;2023-04-28T01:22:40;2.60;;;2.07;;
15679;SDS011;15488;48.114;11.532;2023-04-28T01:25:09;2.27;;;1.97;;
15679;SDS011;15488;48.114;11.532;2023-04-28T01:27:36;2.50;;;1.90;;
15679;SDS011;15488;48.114;11.532;2023-04-28T01:30:04;2.50;;;1.80;;
15679;SDS011;15488;48.114;11.532;2023-04-28T01:32:33;2.50;;;1.70;;
15679;SDS011;15488;48.114;11.532;2023-04-28T01:35:00;2.10;;;1.80;;
15679;SDS011;15488;48.114;11.532;2023-04-28T01:37:28;1.87;;;1.60;;
15679;SDS011;15488;48.114;11.532;2023-04-28T01:39:55;1.97;;;1.70;;
15679;SDS011;15488;48.114;11.532;2023-04-28T01:42:24;1.70;;;1.60;;
15679;SDS011;15488;48.114;11.532;2023-04-28T01:44:51;2.10;;;1.90;;
15679;SDS011;15488;48.114;11.532;2023-04-28T01:47:19;1.90;;;1.60;;
15679;SDS011;15488;48.114;11.532;2023-04-28T01:49:46;2.43;;;1.63;;
15679;SDS011;15488;48.114;11.532;2023-04-28T01:52:14;1.60;;;1.50;;
15679;SDS011;15488;48.114;11.532;2023-04-28T01:54:43;2.03;;;1.60;;
15679;SDS011;15488;48.114;11.532;2023-04-28T01:57:11;1.60;;;1.50;;
15679;SDS011;15488;48.114;11.532;2023-04-28T01:59:40;3.67;;;1.80;;
15679;SDS011;15488;48.114;11.532;2023-04-28T02:02:07;2.80;;;1.63;;
15679;SDS011;15488;48.114;11.532;2023-04-28T02:04:36;1.77;;;1.63;;
15679;SDS011;15488;48.114;11.532;2023-04-28T02:07:04;2.50;;;1.73;;
15679;SDS011;15488;48.114;11.532;2023-04-28T02:09:31;1.60;;;1.50;;
15679;SDS011;15488;48.114;11.532;2023-04-28T02:11:59;1.70;;;1.50;;
15679;SDS011;15488;48.114;11.532;2023-04-28T02:14:26;3.10;;;1.67;;
15679;SDS011;15488;48.114;11.532;2023-04-28T02:16:57;3.37;;;1.40;;
15679;SDS011;15488;48.114;11.532;2023-04-28T02:19:26;2.00;;;1.80;;
15679;SDS011;15488;48.114;11.532;2023-04-28T02:21:54;2.30;;;1.77;;
15679;SDS011;15488;48.114;11.532;2023-04-28T02:24:21;2.07;;;1.87;;
15679;SDS011;15488;48.114;11.532;2023-04-28T02:26:49;1.67;;;1.57;;
15679;SDS011;15488;48.114;11.532;2023-04-28T02:29:16;1.97;;;1.60;;
15679;SDS011;15488;48.114;11.532;2023-04-28T02:31:44;1.90;;;1.70;;
15679;SDS011;15488;48.114;11.532;2023-04-28T02:34:14;2.00;;;1.77;;
15679;SDS011;15488;48.114;11.532;2023-04-28T02:36:41;2.10;;;1.70;;
15679;SDS011;15488;48.114;11.532;2023-04-28T02:39:09;1.63;;;1.50;;
15679;SDS011;15488;48.114;11.532;2023-04-28T02:41:36;1.50;;;1.40;;
15679;SDS011;15488;48.114;11.532;2023-04-28T02:44:04;1.90;;;1.70;;
15679;SDS011;15488;48.114;11.532;2023-04-28T02:46:31;3.30;;;1.70;;
15679;SDS011;15488;48.114;11.532;2023-04-28T02:48:58;2.50;;;1.73;;
15679;SDS011;15488;48.114;11.532;2023-04-28T02:51:27;3.73;;;1.57;;
15679;SDS011;15488;48.114;11.532;2023-04-28T02:53:55;1.70;;;1.60;;
15679;SDS011;15488;48.114;11.532;2023-04-28T02:56:22;2.30;;;1.90;;
15679;SDS011;15488;48.114;11.532;2023-04-28T02:58:50;1.90;;;1.67;;
15679;SDS011;15488;48.114;11.532;2023-04-28T03:01:17;1.40;;;1.20;;
15679;SDS011;15488;48.114;11.532;2023-04-28T03:03:45;2.13;;;1.80;;
15679;SDS011;15488;48.114;11.532;2023-04-28T03:06:12;1.60;;;1.50;;
15679;SDS011;15488;48.114;11.532;2023-04-28T03:08:41;1.60;;;1.50;;
15679;SDS011;15488;48.114;11.532;2023-04-28T03:11:08;1.87;;;1.70;;
15679;SDS011;15488;48.114;11.532;2023-04-28T03:13:36;1.60;;;1.50;;
15679;SDS011;15488;48.114;11.532;2023-04-28T03:16:04;1.80;;;1.43;;
15679;SDS011;15488;48.114;11.532;2023-04-28T03:18:32;1.70;;;1.60;;
15679;SDS011;15488;48.114;11.532;2023-04-28T03:21:00;1.90;;;1.80;;
15679;SDS011;15488;48.114;11.532;2023-04-28T03:23:27;3.00;;;1.70;;
15679;SDS011;15488;48.114;11.532;2023-04-28T03:25:56;1.60;;;1.50;;
15679;SDS011;15488;48.114;11.532;2023-04-28T03:28:24;1.60;;;1.50;;
15679;SDS011;15488;48.114;11.532;2023-04-28T03:30:51;1.77;;;1.27;;
15679;SDS011;15488;48.114;11.532;2023-04-28T03:33:18;2.20;;;1.40;;
15679;SDS011;15488;48.114;11.532;2023-04-28T03:35:46;1.43;;;1.30;;
15679;SDS011;15488;48.114;11.532;2023-04-28T03:38:13;2.10;;;1.60;;
15679;SDS011;15488;48.114;11.532;2023-04-28T03:40:41;1.63;;;1.30;;
15679;SDS011;15488;48.114;11.532;2023-04-28T03:43:09;1.83;;;1.67;;
15679;SDS011;15488;48.114;11.532;2023-04-28T03:45:37;2.63;;;1.53;;
15679;SDS011;15488;48.114;11.532;2023-04-28T03:48:06;1.70;;;1.60;;
15679;SDS011;15488;48.114;11.532;2023-04-28T03:50:33;1.70;;;1.33;;
15679;SDS011;15488;48.114;11.532;2023-04-28T03:53:01;2.27;;;1.60;;
15679;SDS011;15488;48.114;11.532;2023-04-28T03:55:29;2.63;;;1.40;;
15679;SDS011;15488;48.114;11.532;2023-04-28T03:57:56;1.50;;;1.40;;
15679;SDS011;15488;48.114;11.532;2023-04-28T04:00:25;1.77;;;1.60;;
15679;SDS011;15488;48.114;11.532;2023-04-28T04:02:53;3.60;;;1.60;;
15679;SDS011;15488;48.114;11.532;2023-04-28T04:05:20;2.27;;;1.50;;
15679;SDS011;15488;48.114;11.532;2023-04-28T04:07:48;2.20;;;1.43;;
15679;SDS011;15488;48.114;11.532;2023-04-28T04:10:15;2.23;;;2.03;;
15679;SDS011;15488;48.114;11.532;2023-04-28T04:12:43;2.47;;;1.50;;
15679;SDS011;15488;48.114;11.532;2023-04-28T04:15:10;2.13;;;1.53;;
15679;SDS011;15488;48.114;11.532;2023-04-28T04:17:39;1.70;;;1.60;;
15679;SDS011;15488;48.114;11.532;2023-04-28T04:20:07;1.70;;;1.50;;
15679;SDS011;15488;48.114;11.532;2023-04-28T04:22:35;1.83;;;1.37;;
15679;SDS011;15488;48.114;11.532;2023-04-28T04:25:02;2.10;;;1.57;;
15679;SDS011;15488;48.114;11.532;2023-04-28T04:27:30;2.10;;;1.60;;
15679;SDS011;15488;48.114;11.532;2023-04-28T04:29:58;2.77;;;1.50;;
15679;SDS011;15488;48.114;11.532;2023-04-28T04:32:26;2.57;;;1.60;;
15679;SDS011;15488;48.114;11.532;2023-04-28T04:34:55;2.50;;;1.70;;
15679;SDS011;15488;48.114;11.532;2023-04-28T04:37:22;2.07;;;1.60;;
15679;SDS011;15488;48.114;11.532;2023-04-28T04:39:49;2.80;;;1.60;;
15679;SDS011;15488;48.114;11.532;2023-04-28T04:42:17;2.27;;;1.70;;
15679;SDS011;15488;48.114;11.532;2023-04-28T04:44:45;3.80;;;1.83;;
15679;SDS011;15488;48.114;11.532;2023-04-28T04:47:12;2.00;;;1.80;;
15679;SDS011;15488;48.114;11.532;2023-04-28T04:49:39;2.10;;;1.90;;
15679;SDS011;15488;48.114;11.532;2023-04-28T04:52:08;2.73;;;1.73;;
15679;SDS011;15488;48.114;11.532;2023-04-28T04:54:36;2.50;;;1.87;;
15679;SDS011;15488;48.114;11.532;2023-04-28T04:57:03;1.60;;;1.50;;
15679;SDS011;15488;48.114;11.532;2023-04-28T04:59:31;2.17;;;1.77;;
15679;SDS011;15488;48.114;11.532;2023-04-28T05:01:58;2.40;;;2.20;;
15679;SDS011;15488;48.114;11.532;2023-04-28T05:04:26;2.40;;;1.93;;
15679;SDS011;15488;48.114;11.532;2023-04-28T05:06:53;1.90;;;1.80;;
15679;SDS011;15488;48.114;11.532;2023-04-28T05:09:22;1.90;;;1.60;;
15679;SDS011;15488;48.114;11.532;2023-04-28T05:11:49;1.73;;;1.50;;
15679;SDS011;15488;48.114;11.532;2023-04-28T05:14:17;2.20;;;2.00;;
15679;SDS011;15488;48.114;11.532;2023-04-28T05:16:44;2.17;;;1.97;;
15679;SDS011;15488;48.114;11.532;2023-04-28T05:19:11;2.13;;;1.60;;
15679;SDS011;15488;48.114;11.532;2023-04-28T05:21:39;2.67;;;1.70;;
15679;SDS011;15488;48.114;11.532;2023-04-28T05:24:06;2.13;;;1.70;;
15679;SDS011;15488;48.114;11.532;2023-04-28T05:26:35;2.03;;;1.70;;
15679;SDS011;15488;48.114;11.532;2023-04-28T05:29:03;2.50;;;1.67;;
15679;SDS011;15488;48.114;11.532;2023-04-28T05:31:30;2.03;;;1.83;;
15679;SDS011;15488;48.114;11.532;2023-04-28T05:33:58;2.23;;;2.03;;
15679;SDS011;15488;48.114;11.532;2023-04-28T05:36:25;2.47;;;1.80;;
15679;SDS011;15488;48.114;11.532;2023-04-28T05:38:53;1.80;;;1.70;;
15679;SDS011;15488;48.114;11.532;2023-04-28T05:41:20;2.43;;;1.90;;
15679;SDS011;15488;48.114;11.532;2023-04-28T05:43:49;2.70;;;1.87;;
15679;SDS011;15488;48.114;11.532;2023-04-28T05:46:17;2.17;;;1.80;;
15679;SDS011;15488;48.114;11.532;2023-04-28T05:48:44;2.10;;;1.83;;
15679;SDS011;15488;48.114;11.532;2023-04-28T05:51:12;2.43;;;1.93;;
15679;SDS011;15488;48.114;11.532;2023-04-28T05:53:39;2.57;;;1.70;;
15679;SDS011;15488;48.114;11.532;2023-04-28T05:56:07;1.83;;;1.73;;
15679;SDS011;15488;48.114;11.532;2023-04-28T05:58:34;2.83;;;1.83;;
15679;SDS011;15488;48.114;11.532;2023-04-28T06:01:03;3.20;;;1.97;;
15679;SDS011;15488;48.114;11.532;2023-04-28T06:03:31;2.83;;;1.60;;
15679;SDS011;15488;48.114;11.532;2023-04-28T06:05:59;2.17;;;1.50;;
15679;SDS011;15488;48.114;11.532;2023-04-28T06:08:26;2.17;;;1.70;;
15679;SDS011;15488;48.114;11.532;2023-04-28T06:10:53;1.97;;;1.70;;
15679;SDS011;15488;48.114;11.532;2023-04-28T06:13:21;2.27;;;1.60;;
15679;SDS011;15488;48.114;11.532;2023-04-28T06:15:48;2.13;;;1.40;;
15679;SDS011;15488;48.114;11.532;2023-04-28T06:18:17;1.87;;;1.67;;
15679;SDS011;15488;48.114;11.532;2023-04-28T06:20:45;2.37;;;1.70;;
15679;SDS011;15488;48.114;11.532;2023-04-28T06:23:12;2.57;;;1.60;;
15679;SDS011;15488;48.114;11.532;2023-04-28T06:25:39;1.90;;;1.30;;
15679;SDS011;15488;48.114;11.532;2023-04-28T06:28:07;1.90;;;1.40;;
15679;SDS011;15488;48.114;11.532;2023-04-28T06:30:36;1.73;;;1.27;;
15679;SDS011;15488;48.114;11.532;2023-04-28T06:33:03;1.93;;;1.40;;
15679;SDS011;15488;48.114;11.532;2023-04-28T06:35:33;2.03;;;1.30;;
15679;SDS011;15488;48.114;11.532;2023-04-28T06:38:02;2.80;;;1.00;;
15679;SDS011;15488;48.114;11.532;2023-04-28T06:40:32;2.73;;;1.20;;
15679;SDS011;15488;48.114;11.532;2023-04-28T06:42:59;1.13;;;1.00;;
15679;SDS011;15488;48.114;11.532;2023-04-28T06:45:27;1.20;;;1.10;;
15679;SDS011;15488;48.114;11.532;2023-04-28T06:47:54;1.57;;;1.10;;
15679;SDS011;15488;48.114;11.532;2023-04-28T06:50:22;1.57;;;1.10;;
15679;SDS011;15488;48.114;11.532;2023-04-28T06:52:50;1.17;;;0.90;;
15679;SDS011;15488;48.114;11.532;2023-04-28T06:55:18;1.00;;;1.00;;
15679;SDS011;15488;48.114;11.532;2023-04-28T06:57:45;1.63;;;1.13;;
15679;SDS011;15488;48.114;11.532;2023-04-28T07:00:13;1.07;;;0.90;;
15679;SDS011;15488;48.114;11.532;2023-04-28T07:02:41;1.00;;;0.90;;
15679;SDS011;15488;48.114;11.532;2023-04-28T07:05:09;1.13;;;1.03;;
15679;SDS011;15488;48.114;11.532;2023-04-28T07:07:36;0.80;;;0.77;;
15679;SDS011;15488;48.114;11.532;2023-04-28T07:10:05;2.30;;;1.20;;
15679;SDS011;15488;48.114;11.532;2023-04-28T07:12:34;1.50;;;1.37;;
15679;SDS011;15488;48.114;11.532;2023-04-28T07:15:02;2.17;;;1.10;;
15679;SDS011;15488;48.114;11.532;2023-04-28T07:17:36;1.73;;;1.00;;
15679;SDS011;15488;48.114;11.532;2023-04-28T07:20:04;1.00;;;0.90;;
15679;SDS011;15488;48.114;11.532;2023-04-28T07:22:33;3.30;;;2.10;;
15679;SDS011;15488;48.114;11.532;2023-04-28T07:25:00;3.73;;;1.70;;
15679;SDS011;15488;48.114;11.532;2023-04-28T07:27:29;1.50;;;1.40;;
15679;SDS011;15488;48.114;11.532;2023-04-28T07:29:57;1.50;;;1.10;;
15679;SDS011;15488;48.114;11.532;2023-04-28T07:32:25;2.63;;;1.20;;
15679;SDS011;15488;48.114;11.532;2023-04-28T07:34:52;1.53;;;1.40;;
15679;SDS011;15488;48.114;11.532;2023-04-28T07:37:21;1.83;;;1.30;;
15679;SDS011;15488;48.114;11.532;2023-04-28T07:39:48;2.00;;;1.80;;
15679;SDS011;15488;48.114;11.532;2023-04-28T07:42:15;1.50;;;1.07;;
15679;SDS011;15488;48.114;11.532;2023-04-28T07:44:44;1.63;;;1.40;;
15679;SDS011;15488;48.114;11.532;2023-04-28T07:47:12;1.50;;;1.40;;
15679;SDS011;15488;48.114;11.532;2023-04-28T07:49:39;3.10;;;1.20;;
15679;SDS011;15488;48.114;11.532;2023-04-28T07:52:07;1.60;;;1.50;;
15679;SDS011;15488;48.114;11.532;2023-04-28T07:54:35;2.97;;;0.97;;
15679;SDS011;15488;48.114;11.532;2023-04-28T07:57:03;1.07;;;0.93;;
15679;SDS011;15488;48.114;11.532;2023-04-28T07:59:30;1.00;;;0.90;;
15679;SDS011;15488;48.114;11.532;2023-04-28T08:01:59;1.40;;;1.10;;
15679;SDS011;15488;48.114;11.532;2023-04-28T08:04:27;1.33;;;1.10;;
15679;SDS011;15488;48.114;11.532;2023-04-28T08:06:56;1.10;;;1.00;;
15679;SDS011;15488;48.114;11.532;2023-04-28T08:09:23;1.57;;;1.30;;
15679;SDS011;15488;48.114;11.532;2023-04-28T08:11:51;1.73;;;1.23;;
15679;SDS011;15488;48.114;11.532;2023-04-28T08:14:19;1.50;;;1.30;;
15679;SDS011;15488;48.114;11.532;2023-04-28T08:16:46;2.40;;;1.60;;
15679;SDS011;15488;48.114;11.532;2023-04-28T08:19:15;1.53;;;1.43;;
15679;SDS011;15488;48.114;11.532;2023-04-28T08:21:44;1.70;;;1.03;;
15679;SDS011;15488;48.114;11.532;2023-04-28T08:24:11;1.20;;;1.10;;
15679;SDS011;15488;48.114;11.532;2023-04-28T08:26:39;1.70;;;1.03;;
15679;SDS011;15488;48.114;11.532;2023-04-28T08:29:06;1.90;;;1.10;;
15679;SDS011;15488;48.114;11.532;2023-04-28T08:31:33;1.40;;;1.30;;
15679;SDS011;15488;48.114;11.532;2023-04-28T08:34:01;1.20;;;1.10;;
15679;SDS011;15488;48.114;11.532;2023-04-28T08:36:30;1.20;;;1.10;;
15679;SDS011;15488;48.114;11.532;2023-04-28T08:38:57;5.87;;;3.60;;
15679;SDS011;15488;48.114;11.532;2023-04-28T08:41:27;2.10;;;1.90;;
15679;SDS011;15488;48.114;11.532;2023-04-28T08:43:58;1.90;;;1.20;;
15679;SDS011;15488;48.114;11.532;2023-04-28T08:46:26;1.60;;;1.10;;
15679;SDS011;15488;48.114;11.532;2023-04-28T08:48:55;1.13;;;1.03;;
15679;SDS011;15488;48.114;11.532;2023-04-28T08:51:29;1.67;;;1.40;;
15679;SDS011;15488;48.114;11.532;2023-04-28T08:54:03;1.37;;;1.27;;
15679;SDS011;15488;48.114;11.532;2023-04-28T08:56:32;2.30;;;1.33;;
15679;SDS011;15488;48.114;11.532;2023-04-28T08:59:00;1.87;;;1.30;;
15679;SDS011;15488;48.114;11.532;2023-04-28T09:01:29;2.83;;;1.20;;
15679;SDS011;15488;48.114;11.532;2023-04-28T09:03:59;1.70;;;1.23;;
15679;SDS011;15488;48.114;11.532;2023-04-28T09:06:30;1.70;;;1.20;;
15679;SDS011;15488;48.114;11.532;2023-04-28T09:11:53;1.67;;;1.00;;
15679;SDS011;15488;48.114;11.532;2023-04-28T09:14:22;1.33;;;1.13;;
15679;SDS011;15488;48.114;11.532;2023-04-28T09:16:50;1.37;;;1.20;;
15679;SDS011;15488;48.114;11.532;2023-04-28T09:19:18;1.40;;;0.90;;
15679;SDS011;15488;48.114;11.532;2023-04-28T09:21:46;0.80;;;0.80;;
15679;SDS011;15488;48.114;11.532;2023-04-28T09:24:25;0.80;;;0.80;;
15679;SDS011;15488;48.114;11.532;2023-04-28T09:26:54;1.00;;;0.90;;
15679;SDS011;15488;48.114;11.532;2023-04-28T09:29:21;1.40;;;0.70;;
15679;SDS011;15488;48.114;11.532;2023-04-28T09:31:49;0.60;;;0.53;;
15679;SDS011;15488;48.114;11.532;2023-04-28T09:34:17;0.97;;;0.80;;
15679;SDS011;15488;48.114;11.532;2023-04-28T09:36:44;0.90;;;0.80;;
15679;SDS011;15488;48.114;11.532;2023-04-28T09:39:12;1.00;;;0.63;;
15679;SDS011;15488;48.114;11.532;2023-04-28T09:41:41;0.70;;;0.60;;
15679;SDS011;15488;48.114;11.532;2023-04-28T09:44:10;0.97;;;0.80;;
15679;SDS011;15488;48.114;11.532;2023-04-28T09:46:39;1.77;;;0.70;;
15679;SDS011;15488;48.114;11.532;2023-04-28T09:49:07;2.30;;;0.77;;
15679;SDS011;15488;48.114;11.532;2023-04-28T09:51:34;1.33;;;0.80;;
15679;SDS011;15488;48.114;11.532;2023-04-28T09:54:02;1.70;;;0.80;;
15679;SDS011;15488;48.114;11.532;2023-04-28T09:56:31;0.60;;;0.60;;
15679;SDS011;15488;48.114;11.532;2023-04-28T09:59:03;0.60;;;0.60;;
15679;SDS011;15488;48.114;11.532;2023-04-28T10:01:31;1.00;;;0.60;;
15679;SDS011;15488;48.114;11.532;2023-04-28T10:04:03;0.77;;;0.53;;
15679;SDS011;15488;48.114;11.532;2023-04-28T10:06:32;0.80;;;0.70;;
15679;SDS011;15488;48.114;11.532;2023-04-28T10:09:01;1.20;;;0.90;;
15679;SDS011;15488;48.114;11.532;2023-04-28T10:11:30;1.20;;;0.60;;
15679;SDS011;15488;48.114;11.532;2023-04-28T10:13:58;0.60;;;0.60;;
15679;SDS011;15488;48.114;11.532;2023-04-28T10:16:29;1.83;;;0.60;;
15679;SDS011;15488;48.114;11.532;2023-04-28T10:18:57;0.63;;;0.50;;
15679;SDS011;15488;48.114;11.532;2023-04-28T10:21:26;0.73;;;0.60;;
15679;SDS011;15488;48.114;11.532;2023-04-28T10:23:58;1.13;;;0.80;;
15679;SDS011;15488;48.114;11.532;2023-04-28T10:26:56;1.40;;;0.50;;
15679;SDS011;15488;48.114;11.532;2023-04-28T10:29:28;1.07;;;0.50;;
15679;SDS011;15488;48.114;11.532;2023-04-28T10:34:46;2.17;;;0.50;;
15679;SDS011;15488;48.114;11.532;2023-04-28T10:37:14;1.27;;;1.07;;
15679;SDS011;15488;48.114;11.532;2023-04-28T10:42:50;0.50;;;0.50;;
15679;SDS011;15488;48.114;11.532;2023-04-28T10:48:21;0.90;;;0.50;;
15679;SDS011;15488;48.114;11.532;2023-04-28T10:51:20;0.87;;;0.40;;
15679;SDS011;15488;48.114;11.532;2023-04-28T10:56:39;0.73;;;0.50;;
15679;SDS011;15488;48.114;11.532;2023-04-28T10:59:23;2.00;;;0.43;;
15679;SDS011;15488;48.114;11.532;2023-04-28T11:01:52;0.83;;;0.40;;
15679;SDS011;15488;48.114;11.532;2023-04-28T11:04:20;0.80;;;0.47;;
15679;SDS011;15488;48.114;11.532;2023-04-28T11:09:47;0.40;;;0.30;;
15679;SDS011;15488;48.114;11.532;2023-04-28T11:12:17;0.40;;;0.40;;
15679;SDS011;15488;48.114;11.532;2023-04-28T11:14:44;0.90;;;0.60;;
15679;SDS011;15488;48.114;11.532;2023-04-28T11:17:12;1.90;;;0.50;;
15679;SDS011;15488;48.114;11.532;2023-04-28T11:19:43;0.97;;;0.50;;
15679;SDS011;15488;48.114;11.532;2023-04-28T11:22:13;0.60;;;0.50;;
15679;SDS011;15488;48.114;11.532;2023-04-28T11:24:53;0.47;;;0.40;;
15679;SDS011;15488;48.114;11.532;2023-04-28T11:27:22;0.93;;;0.40;;
15679;SDS011;15488;48.114;11.532;2023-04-28T11:29:50;1.27;;;0.50;;
15679;SDS011;15488;48.114;11.532;2023-04-28T11:32:25;1.63;;;0.70;;
15679;SDS011;15488;48.114;11.532;2023-04-28T11:34:54;0.60;;;0.50;;
15679;SDS011;15488;48.114;11.532;2023-04-28T11:37:22;1.67;;;0.40;;
15679;SDS011;15488;48.114;11.532;2023-04-28T11:39:51;0.60;;;0.40;;
15679;SDS011;15488;48.114;11.532;2023-04-28T11:42:18;0.70;;;0.40;;
15679;SDS011;15488;48.114;11.532;2023-04-28T11:44:49;1.20;;;0.50;;
15679;SDS011;15488;48.114;11.532;2023-04-28T11:47:27;1.63;;;0.50;;
15679;SDS011;15488;48.114;11.532;2023-04-28T11:49:56;0.67;;;0.43;;
15679;SDS011;15488;48.114;11.532;2023-04-28T11:52:25;0.47;;;0.40;;
15679;SDS011;15488;48.114;11.532;2023-04-28T11:54:53;0.97;;;0.40;;
15679;SDS011;15488;48.114;11.532;2023-04-28T11:57:22;0.70;;;0.40;;
15679;SDS011;15488;48.114;11.532;2023-04-28T11:59:50;0.70;;;0.60;;
15679;SDS011;15488;48.114;11.532;2023-04-28T12:02:23;1.53;;;0.43;;
15679;SDS011;15488;48.114;11.532;2023-04-28T12:04:53;0.97;;;0.40;;
15679;SDS011;15488;48.114;11.532;2023-04-28T12:07:22;0.57;;;0.40;;
15679;SDS011;15488;48.114;11.532;2023-04-28T12:12:36;0.87;;;0.60;;
15679;SDS011;15488;48.114;11.532;2023-04-28T12:15:04;0.83;;;0.50;;
15679;SDS011;15488;48.114;11.532;2023-04-28T12:17:33;1.03;;;0.30;;
15679;SDS011;15488;48.114;11.532;2023-04-28T12:20:02;0.90;;;0.40;;
15679;SDS011;15488;48.114;11.532;2023-04-28T12:22:41;0.63;;;0.50;;
15679;SDS011;15488;48.114;11.532;2023-04-28T12:25:11;0.63;;;0.57;;
15679;SDS011;15488;48.114;11.532;2023-04-28T12:27:40;0.50;;;0.40;;
15679;SDS011;15488;48.114;11.532;2023-04-28T12:30:24;0.37;;;0.33;;
15679;SDS011;15488;48.114;11.532;2023-04-28T12:32:53;0.80;;;0.60;;
15679;SDS011;15488;48.114;11.532;2023-04-28T12:35:21;1.53;;;0.80;;
15679;SDS011;15488;48.114;11.532;2023-04-28T12:37:50;1.17;;;0.37;;
15679;SDS011;15488;48.114;11.532;2023-04-28T12:40:19;0.87;;;0.50;;
15679;SDS011;15488;48.114;11.532;2023-04-28T12:42:47;0.40;;;0.40;;
15679;SDS011;15488;48.114;11.532;2023-04-28T12:45:15;0.40;;;0.40;;
15679;SDS011;15488;48.114;11.532;2023-04-28T12:47:42;0.97;;;0.40;;
15679;SDS011;15488;48.114;11.532;2023-04-28T12:50:10;0.50;;;0.40;;
15679;SDS011;15488;48.114;11.532;2023-04-28T12:52:37;0.70;;;0.50;;
15679;SDS011;15488;48.114;11.532;2023-04-28T12:55:07;0.43;;;0.40;;
15679;SDS011;15488;48.114;11.532;2023-04-28T12:57:35;0.70;;;0.40;;
15679;SDS011;15488;48.114;11.532;2023-04-28T13:00:03;0.40;;;0.33;;
15679;SDS011;15488;48.114;11.532;2023-04-28T13:02:31;1.03;;;0.90;;
15679;SDS011;15488;48.114;11.532;2023-04-28T13:04:59;1.10;;;0.50;;
15679;SDS011;15488;48.114;11.532;2023-04-28T13:07:26;0.50;;;0.30;;
15679;SDS011;15488;48.114;11.532;2023-04-28T13:09:54;2.03;;;0.40;;
15679;SDS011;15488;48.114;11.532;2023-04-28T13:12:23;0.53;;;0.43;;
15679;SDS011;15488;48.114;11.532;2023-04-28T13:14:51;0.40;;;0.37;;
15679;SDS011;15488;48.114;11.532;2023-04-28T13:17:18;0.20;;;0.20;;
15679;SDS011;15488;48.114;11.532;2023-04-28T13:19:46;0.30;;;0.20;;
15679;SDS011;15488;48.114;11.532;2023-04-28T13:22:14;1.13;;;0.20;;
15679;SDS011;15488;48.114;11.532;2023-04-28T13:24:41;0.80;;;0.40;;
15679;SDS011;15488;48.114;11.532;2023-04-28T13:27:09;1.10;;;0.37;;
15679;SDS011;15488;48.114;11.532;2023-04-28T13:29:38;2.20;;;1.80;;
15679;SDS011;15488;48.114;11.532;2023-04-28T13:32:05;1.33;;;0.97;;
15679;SDS011;15488;48.114;11.532;2023-04-28T13:34:33;0.60;;;0.40;;
15679;SDS011;15488;48.114;11.532;2023-04-28T13:37:02;0.43;;;0.20;;
15679;SDS011;15488;48.114;11.532;2023-04-28T13:39:29;0.27;;;0.27;;
15679;SDS011;15488;48.114;11.532;2023-04-28T13:41:57;0.73;;;0.50;;
15679;SDS011;15488;48.114;11.532;2023-04-28T13:44:25;0.23;;;0.20;;
15679;SDS011;15488;48.114;11.532;2023-04-28T13:46:54;0.30;;;0.30;;
15679;SDS011;15488;48.114;11.532;2023-04-28T13:49:22;0.83;;;0.50;;
15679;SDS011;15488;48.114;11.532;2023-04-28T13:51:49;0.53;;;0.30;;
15679;SDS011;15488;48.114;11.532;2023-04-28T13:54:17;0.73;;;0.30;;
15679;SDS011;15488;48.114;11.532;2023-04-28T13:56:45;0.30;;;0.30;;
15679;SDS011;15488;48.114;11.532;2023-04-28T13:59:12;1.10;;;0.30;;
15679;SDS011;15488;48.114;11.532;2023-04-28T14:01:40;0.20;;;0.20;;
15679;SDS011;15488;48.114;11.532;2023-04-28T14:04:09;2.03;;;0.50;;
15679;SDS011;15488;48.114;11.532;2023-04-28T14:06:36;0.90;;;0.67;;
15679;SDS011;15488;48.114;11.532;2023-04-28T14:09:04;0.67;;;0.60;;
15679;SDS011;15488;48.114;11.532;2023-04-28T14:11:32;3.03;;;0.30;;
15679;SDS011;15488;48.114;11.532;2023-04-28T14:13:59;0.40;;;0.40;;
15679;SDS011;15488;48.114;11.532;2023-04-28T14:16:26;0.30;;;0.20;;
15679;SDS011;15488;48.114;11.532;2023-04-28T14:18:54;1.33;;;0.40;;
15679;SDS011;15488;48.114;11.532;2023-04-28T14:21:24;0.40;;;0.30;;
15679;SDS011;15488;48.114;11.532;2023-04-28T14:23:52;0.50;;;0.40;;
15679;SDS011;15488;48.114;11.532;2023-04-28T14:26:19;0.33;;;0.30;;
15679;SDS011;15488;48.114;11.532;2023-04-28T14:28:48;0.53;;;0.30;;
15679;SDS011;15488;48.114;11.532;2023-04-28T14:31:15;0.20;;;0.20;;
15679;SDS011;15488;48.114;11.532;2023-04-28T14:33:43;0.40;;;0.30;;
15679;SDS011;15488;48.114;11.532;2023-04-28T14:36:11;0.57;;;0.40;;
15679;SDS011;15488;48.114;11.532;2023-04-28T14:38:40;0.30;;;0.30;;
15679;SDS011;15488;48.114;11.532;2023-04-28T14:41:07;0.20;;;0.20;;
15679;SDS011;15488;48.114;11.532;2023-04-28T14:43:35;0.70;;;0.50;;
15679;SDS011;15488;48.114;11.532;2023-04-28T14:46:03;1.13;;;0.67;;
15679;SDS011;15488;48.114;11.532;2023-04-28T14:48:30;0.50;;;0.40;;
15679;SDS011;15488;48.114;11.532;2023-04-28T14:50:58;0.37;;;0.37;;
15679;SDS011;15488;48.114;11.532;2023-04-28T14:53:26;0.20;;;0.20;;
15679;SDS011;15488;48.114;11.532;2023-04-28T14:55:55;0.20;;;0.20;;
15679;SDS011;15488;48.114;11.532;2023-04-28T14:58:23;0.30;;;0.30;;
15679;SDS011;15488;48.114;11.532;2023-04-28T15:00:51;0.60;;;0.30;;